sensor_id;sensor_type;location;lat;lon;timestamp;P1;durP1;ratioP1;P2;durP2;ratioP2
325;SDS011;150;52.352;14.058;2022-08-21T00:01:36;19.83;;;15.43;;
325;SDS011;150;52.352;14.058;2022-08-21T00:04:03;20.77;;;14.95;;
325;SDS011;150;52.352;14.058;2022-08-21T00:06:31;16.60;;;13.35;;
325;SDS011;150;52.352;14.058;2022-08-21T00:08:58;19.13;;;14.50;;
325;SDS011;150;52.352;14.058;2022-08-21T00:11:25;19.02;;;14.90;;
325;SDS011;150;52.352;14.058;2022-08-21T00:13:54;20.67;;;15.07;;
325;SDS011;150;52.352;14.058;2022-08-21T00:16:21;20.02;;;13.90;;
325;SDS011;150;52.352;14.058;2022-08-21T00:18:48;16.73;;;14.43;;
325;SDS011;150;52.352;14.058;2022-08-21T00:21:15;18.25;;;15.00;;
325;SDS011;150;52.352;14.058;2022-08-21T00:23:43;16.50;;;13.50;;
325;SDS011;150;52.352;14.058;2022-08-21T00:26:09;19.13;;;13.45;;
325;SDS011;150;52.352;14.058;2022-08-21T00:28:36;17.33;;;13.80;;
325;SDS011;150;52.352;14.058;2022-08-21T00:31:05;20.90;;;13.63;;
325;SDS011;150;52.352;14.058;2022-08-21T00:33:31;17.30;;;14.07;;
325;SDS011;150;52.352;14.058;2022-08-21T00:35:58;17.23;;;13.15;;
325;SDS011;150;52.352;14.058;2022-08-21T00:38:25;15.83;;;13.03;;
325;SDS011;150;52.352;14.058;2022-08-21T00:40:54;16.55;;;13.13;;
325;SDS011;150;52.352;14.058;2022-08-21T00:43:22;17.52;;;13.25;;
325;SDS011;150;52.352;14.058;2022-08-21T00:45:52;18.23;;;14.15;;
325;SDS011;150;52.352;14.058;2022-08-21T00:48:21;17.05;;;13.20;;
325;SDS011;150;52.352;14.058;2022-08-21T00:50:50;19.55;;;14.05;;
325;SDS011;150;52.352;14.058;2022-08-21T00:53:20;14.65;;;13.27;;
325;SDS011;150;52.352;14.058;2022-08-21T00:55:47;15.80;;;12.93;;
325;SDS011;150;52.352;14.058;2022-08-21T00:58:15;15.38;;;13.27;;
325;SDS011;150;52.352;14.058;2022-08-21T01:00:43;17.98;;;12.15;;
325;SDS011;150;52.352;14.058;2022-08-21T01:03:12;15.32;;;12.70;;
325;SDS011;150;52.352;14.058;2022-08-21T01:05:43;16.05;;;11.60;;
325;SDS011;150;52.352;14.058;2022-08-21T01:08:11;15.68;;;11.45;;
325;SDS011;150;52.352;14.058;2022-08-21T01:10:39;14.25;;;12.07;;
325;SDS011;150;52.352;14.058;2022-08-21T01:13:07;17.83;;;12.80;;
325;SDS011;150;52.352;14.058;2022-08-21T01:15:35;15.48;;;13.20;;
325;SDS011;150;52.352;14.058;2022-08-21T01:18:05;17.42;;;12.43;;
325;SDS011;150;52.352;14.058;2022-08-21T01:20:34;20.07;;;15.60;;
325;SDS011;150;52.352;14.058;2022-08-21T01:23:04;16.15;;;14.48;;
325;SDS011;150;52.352;14.058;2022-08-21T01:25:32;18.35;;;11.85;;
325;SDS011;150;52.352;14.058;2022-08-21T01:27:59;14.02;;;12.45;;
325;SDS011;150;52.352;14.058;2022-08-21T01:30:40;16.90;;;14.45;;
325;SDS011;150;52.352;14.058;2022-08-21T01:33:09;14.00;;;12.40;;
325;SDS011;150;52.352;14.058;2022-08-21T01:35:35;15.73;;;12.00;;
325;SDS011;150;52.352;14.058;2022-08-21T01:38:03;15.38;;;11.50;;
325;SDS011;150;52.352;14.058;2022-08-21T01:40:30;13.45;;;12.05;;
325;SDS011;150;52.352;14.058;2022-08-21T01:42:57;14.40;;;10.80;;
325;SDS011;150;52.352;14.058;2022-08-21T01:45:24;14.38;;;11.52;;
325;SDS011;150;52.352;14.058;2022-08-21T01:47:50;12.82;;;9.90;;
325;SDS011;150;52.352;14.058;2022-08-21T01:50:18;15.48;;;11.30;;
325;SDS011;150;52.352;14.058;2022-08-21T01:52:46;12.00;;;10.33;;
325;SDS011;150;52.352;14.058;2022-08-21T01:55:14;13.70;;;10.10;;
325;SDS011;150;52.352;14.058;2022-08-21T01:57:42;11.70;;;10.50;;
325;SDS011;150;52.352;14.058;2022-08-21T02:00:11;12.07;;;10.57;;
325;SDS011;150;52.352;14.058;2022-08-21T02:02:39;10.98;;;8.88;;
325;SDS011;150;52.352;14.058;2022-08-21T02:05:07;12.43;;;10.30;;
325;SDS011;150;52.352;14.058;2022-08-21T02:07:36;13.45;;;10.07;;
325;SDS011;150;52.352;14.058;2022-08-21T02:10:05;11.85;;;10.20;;
325;SDS011;150;52.352;14.058;2022-08-21T02:12:35;10.30;;;9.27;;
325;SDS011;150;52.352;14.058;2022-08-21T02:15:04;12.43;;;8.45;;
325;SDS011;150;52.352;14.058;2022-08-21T02:17:39;11.90;;;9.10;;
325;SDS011;150;52.352;14.058;2022-08-21T02:20:08;12.70;;;9.38;;
325;SDS011;150;52.352;14.058;2022-08-21T02:22:36;10.65;;;9.23;;
325;SDS011;150;52.352;14.058;2022-08-21T02:25:03;11.20;;;8.40;;
325;SDS011;150;52.352;14.058;2022-08-21T02:27:36;9.90;;;9.10;;
325;SDS011;150;52.352;14.058;2022-08-21T02:30:07;13.13;;;8.10;;
325;SDS011;150;52.352;14.058;2022-08-21T02:32:35;11.13;;;9.05;;
325;SDS011;150;52.352;14.058;2022-08-21T02:35:02;12.77;;;8.57;;
325;SDS011;150;52.352;14.058;2022-08-21T02:37:29;10.60;;;8.70;;
325;SDS011;150;52.352;14.058;2022-08-21T02:39:56;8.98;;;8.23;;
325;SDS011;150;52.352;14.058;2022-08-21T02:42:22;9.73;;;8.15;;
325;SDS011;150;52.352;14.058;2022-08-21T02:44:50;9.68;;;8.50;;
325;SDS011;150;52.352;14.058;2022-08-21T02:47:17;10.60;;;8.05;;
325;SDS011;150;52.352;14.058;2022-08-21T02:49:44;11.00;;;8.60;;
325;SDS011;150;52.352;14.058;2022-08-21T02:52:10;10.20;;;8.10;;
325;SDS011;150;52.352;14.058;2022-08-21T02:54:37;9.00;;;8.52;;
325;SDS011;150;52.352;14.058;2022-08-21T02:57:04;9.95;;;8.05;;
325;SDS011;150;52.352;14.058;2022-08-21T03:02:02;8.68;;;8.13;;
325;SDS011;150;52.352;14.058;2022-08-21T03:04:29;8.30;;;7.90;;
325;SDS011;150;52.352;14.058;2022-08-21T03:06:57;8.70;;;7.40;;
325;SDS011;150;52.352;14.058;2022-08-21T03:09:23;10.30;;;7.70;;
325;SDS011;150;52.352;14.058;2022-08-21T03:11:50;10.27;;;7.90;;
325;SDS011;150;52.352;14.058;2022-08-21T03:14:18;10.20;;;7.10;;
325;SDS011;150;52.352;14.058;2022-08-21T03:16:45;9.10;;;8.00;;
325;SDS011;150;52.352;14.058;2022-08-21T03:19:13;9.02;;;7.13;;
325;SDS011;150;52.352;14.058;2022-08-21T03:21:40;9.38;;;7.78;;
325;SDS011;150;52.352;14.058;2022-08-21T03:24:06;8.45;;;7.30;;
325;SDS011;150;52.352;14.058;2022-08-21T03:26:34;9.25;;;6.85;;
325;SDS011;150;52.352;14.058;2022-08-21T03:29:00;8.40;;;6.30;;
325;SDS011;150;52.352;14.058;2022-08-21T03:31:27;9.45;;;7.03;;
325;SDS011;150;52.352;14.058;2022-08-21T03:33:56;8.07;;;5.93;;
325;SDS011;150;52.352;14.058;2022-08-21T03:36:24;6.95;;;5.57;;
325;SDS011;150;52.352;14.058;2022-08-21T03:38:51;7.60;;;6.28;;
325;SDS011;150;52.352;14.058;2022-08-21T03:41:17;9.20;;;5.47;;
325;SDS011;150;52.352;14.058;2022-08-21T03:43:44;8.02;;;5.70;;
325;SDS011;150;52.352;14.058;2022-08-21T03:46:11;8.32;;;5.68;;
325;SDS011;150;52.352;14.058;2022-08-21T03:48:38;6.93;;;5.32;;
325;SDS011;150;52.352;14.058;2022-08-21T03:51:06;6.07;;;5.30;;
325;SDS011;150;52.352;14.058;2022-08-21T03:53:34;6.10;;;5.82;;
325;SDS011;150;52.352;14.058;2022-08-21T03:56:01;6.90;;;5.50;;
325;SDS011;150;52.352;14.058;2022-08-21T03:58:28;9.32;;;5.30;;
325;SDS011;150;52.352;14.058;2022-08-21T04:00:56;6.10;;;5.10;;
325;SDS011;150;52.352;14.058;2022-08-21T04:03:25;6.15;;;5.35;;
325;SDS011;150;52.352;14.058;2022-08-21T04:05:52;8.50;;;5.10;;
325;SDS011;150;52.352;14.058;2022-08-21T04:08:19;6.60;;;5.40;;
325;SDS011;150;52.352;14.058;2022-08-21T04:10:47;6.57;;;5.30;;
325;SDS011;150;52.352;14.058;2022-08-21T04:13:23;5.90;;;5.35;;
325;SDS011;150;52.352;14.058;2022-08-21T04:15:51;7.45;;;5.70;;
325;SDS011;150;52.352;14.058;2022-08-21T04:18:18;8.90;;;5.50;;
325;SDS011;150;52.352;14.058;2022-08-21T04:20:45;6.95;;;6.18;;
325;SDS011;150;52.352;14.058;2022-08-21T04:23:15;7.80;;;5.60;;
325;SDS011;150;52.352;14.058;2022-08-21T04:25:42;5.60;;;5.30;;
325;SDS011;150;52.352;14.058;2022-08-21T04:28:10;9.02;;;5.43;;
325;SDS011;150;52.352;14.058;2022-08-21T04:30:36;7.38;;;5.10;;
325;SDS011;150;52.352;14.058;2022-08-21T04:33:04;6.70;;;5.50;;
325;SDS011;150;52.352;14.058;2022-08-21T04:35:31;5.80;;;5.10;;
325;SDS011;150;52.352;14.058;2022-08-21T04:37:57;6.45;;;4.45;;
325;SDS011;150;52.352;14.058;2022-08-21T04:40:25;6.37;;;4.80;;
325;SDS011;150;52.352;14.058;2022-08-21T04:42:54;5.93;;;4.90;;
325;SDS011;150;52.352;14.058;2022-08-21T04:45:27;6.10;;;4.93;;
325;SDS011;150;52.352;14.058;2022-08-21T04:47:55;5.20;;;4.50;;
325;SDS011;150;52.352;14.058;2022-08-21T04:50:27;4.80;;;4.00;;
325;SDS011;150;52.352;14.058;2022-08-21T04:52:56;5.78;;;4.30;;
325;SDS011;150;52.352;14.058;2022-08-21T04:55:24;9.15;;;5.03;;
325;SDS011;150;52.352;14.058;2022-08-21T04:57:53;5.95;;;4.05;;
325;SDS011;150;52.352;14.058;2022-08-21T05:00:20;5.22;;;4.20;;
325;SDS011;150;52.352;14.058;2022-08-21T05:02:50;4.80;;;4.32;;
325;SDS011;150;52.352;14.058;2022-08-21T05:05:21;6.72;;;4.30;;
325;SDS011;150;52.352;14.058;2022-08-21T05:07:48;7.03;;;4.35;;
325;SDS011;150;52.352;14.058;2022-08-21T05:10:15;7.72;;;4.55;;
325;SDS011;150;52.352;14.058;2022-08-21T05:12:42;5.75;;;4.20;;
325;SDS011;150;52.352;14.058;2022-08-21T05:15:10;5.70;;;4.40;;
325;SDS011;150;52.352;14.058;2022-08-21T05:17:37;4.90;;;3.95;;
325;SDS011;150;52.352;14.058;2022-08-21T05:20:06;4.90;;;4.30;;
325;SDS011;150;52.352;14.058;2022-08-21T05:22:33;6.47;;;4.10;;
325;SDS011;150;52.352;14.058;2022-08-21T05:25:00;5.70;;;4.40;;
325;SDS011;150;52.352;14.058;2022-08-21T05:27:27;7.40;;;5.20;;
325;SDS011;150;52.352;14.058;2022-08-21T05:29:54;5.63;;;5.10;;
325;SDS011;150;52.352;14.058;2022-08-21T05:32:21;10.20;;;5.75;;
325;SDS011;150;52.352;14.058;2022-08-21T05:34:48;8.30;;;5.00;;
325;SDS011;150;52.352;14.058;2022-08-21T05:37:16;4.57;;;3.80;;
325;SDS011;150;52.352;14.058;2022-08-21T05:39:43;8.13;;;5.30;;
325;SDS011;150;52.352;14.058;2022-08-21T05:42:10;5.93;;;4.60;;
325;SDS011;150;52.352;14.058;2022-08-21T05:44:37;4.57;;;4.30;;
325;SDS011;150;52.352;14.058;2022-08-21T05:47:04;6.50;;;5.00;;
325;SDS011;150;52.352;14.058;2022-08-21T05:49:32;7.20;;;5.20;;
325;SDS011;150;52.352;14.058;2022-08-21T05:51:59;8.15;;;4.55;;
325;SDS011;150;52.352;14.058;2022-08-21T05:54:27;7.13;;;4.57;;
325;SDS011;150;52.352;14.058;2022-08-21T05:56:54;10.60;;;5.85;;
325;SDS011;150;52.352;14.058;2022-08-21T05:59:20;7.55;;;6.82;;
325;SDS011;150;52.352;14.058;2022-08-21T06:01:47;10.80;;;7.00;;
325;SDS011;150;52.352;14.058;2022-08-21T06:04:14;7.75;;;4.30;;
325;SDS011;150;52.352;14.058;2022-08-21T06:06:41;5.93;;;4.32;;
325;SDS011;150;52.352;14.058;2022-08-21T06:09:08;5.63;;;4.05;;
325;SDS011;150;52.352;14.058;2022-08-21T06:11:36;6.15;;;3.97;;
325;SDS011;150;52.352;14.058;2022-08-21T06:14:02;7.35;;;3.90;;
325;SDS011;150;52.352;14.058;2022-08-21T06:16:31;4.57;;;4.00;;
325;SDS011;150;52.352;14.058;2022-08-21T06:18:58;4.50;;;3.88;;
325;SDS011;150;52.352;14.058;2022-08-21T06:21:24;8.95;;;4.10;;
325;SDS011;150;52.352;14.058;2022-08-21T06:23:51;7.22;;;4.70;;
325;SDS011;150;52.352;14.058;2022-08-21T06:26:18;8.30;;;5.03;;
325;SDS011;150;52.352;14.058;2022-08-21T06:28:47;8.07;;;4.20;;
325;SDS011;150;52.352;14.058;2022-08-21T06:31:15;5.95;;;3.95;;
325;SDS011;150;52.352;14.058;2022-08-21T06:33:43;8.60;;;4.40;;
325;SDS011;150;52.352;14.058;2022-08-21T06:36:10;4.85;;;4.28;;
325;SDS011;150;52.352;14.058;2022-08-21T06:38:37;5.60;;;4.43;;
325;SDS011;150;52.352;14.058;2022-08-21T06:41:04;5.13;;;3.80;;
325;SDS011;150;52.352;14.058;2022-08-21T06:43:32;6.43;;;4.00;;
325;SDS011;150;52.352;14.058;2022-08-21T06:46:00;4.90;;;4.45;;
325;SDS011;150;52.352;14.058;2022-08-21T06:48:27;7.05;;;3.78;;
325;SDS011;150;52.352;14.058;2022-08-21T06:50:54;8.63;;;4.38;;
325;SDS011;150;52.352;14.058;2022-08-21T06:53:21;4.55;;;4.05;;
325;SDS011;150;52.352;14.058;2022-08-21T06:55:48;7.43;;;3.70;;
325;SDS011;150;52.352;14.058;2022-08-21T06:58:15;6.40;;;3.77;;
325;SDS011;150;52.352;14.058;2022-08-21T07:00:43;5.70;;;3.58;;
325;SDS011;150;52.352;14.058;2022-08-21T07:03:17;7.28;;;4.00;;
325;SDS011;150;52.352;14.058;2022-08-21T07:05:45;7.32;;;4.22;;
325;SDS011;150;52.352;14.058;2022-08-21T07:08:12;5.10;;;4.20;;
325;SDS011;150;52.352;14.058;2022-08-21T07:10:38;5.18;;;3.67;;
325;SDS011;150;52.352;14.058;2022-08-21T07:13:05;7.22;;;4.50;;
325;SDS011;150;52.352;14.058;2022-08-21T07:15:32;9.43;;;4.00;;
325;SDS011;150;52.352;14.058;2022-08-21T07:17:58;4.97;;;3.47;;
325;SDS011;150;52.352;14.058;2022-08-21T07:20:27;7.05;;;3.80;;
325;SDS011;150;52.352;14.058;2022-08-21T07:22:56;7.93;;;3.55;;
325;SDS011;150;52.352;14.058;2022-08-21T07:25:25;5.75;;;4.10;;
325;SDS011;150;52.352;14.058;2022-08-21T07:27:52;6.45;;;4.10;;
325;SDS011;150;52.352;14.058;2022-08-21T07:30:19;9.70;;;5.05;;
325;SDS011;150;52.352;14.058;2022-08-21T07:32:46;6.75;;;3.47;;
325;SDS011;150;52.352;14.058;2022-08-21T07:35:14;5.13;;;3.30;;
325;SDS011;150;52.352;14.058;2022-08-21T07:37:42;3.30;;;2.50;;
325;SDS011;150;52.352;14.058;2022-08-21T07:40:08;9.70;;;3.10;;
325;SDS011;150;52.352;14.058;2022-08-21T07:42:39;5.68;;;3.25;;
325;SDS011;150;52.352;14.058;2022-08-21T07:45:06;3.90;;;2.70;;
325;SDS011;150;52.352;14.058;2022-08-21T07:47:34;4.32;;;2.80;;
325;SDS011;150;52.352;14.058;2022-08-21T07:50:01;5.03;;;2.67;;
325;SDS011;150;52.352;14.058;2022-08-21T07:52:28;4.00;;;2.50;;
325;SDS011;150;52.352;14.058;2022-08-21T07:54:56;5.70;;;2.67;;
325;SDS011;150;52.352;14.058;2022-08-21T07:57:22;3.75;;;2.40;;
325;SDS011;150;52.352;14.058;2022-08-21T07:59:49;5.20;;;2.72;;
325;SDS011;150;52.352;14.058;2022-08-21T08:02:21;6.18;;;2.50;;
325;SDS011;150;52.352;14.058;2022-08-21T08:04:48;5.18;;;2.40;;
325;SDS011;150;52.352;14.058;2022-08-21T08:07:15;6.30;;;2.33;;
325;SDS011;150;52.352;14.058;2022-08-21T08:09:42;5.00;;;2.97;;
325;SDS011;150;52.352;14.058;2022-08-21T08:12:11;7.05;;;4.68;;
325;SDS011;150;52.352;14.058;2022-08-21T08:14:40;3.53;;;2.90;;
325;SDS011;150;52.352;14.058;2022-08-21T08:17:07;5.23;;;2.70;;
325;SDS011;150;52.352;14.058;2022-08-21T08:19:34;4.53;;;2.40;;
325;SDS011;150;52.352;14.058;2022-08-21T08:22:00;8.88;;;3.25;;
325;SDS011;150;52.352;14.058;2022-08-21T08:24:27;4.25;;;3.00;;
325;SDS011;150;52.352;14.058;2022-08-21T08:26:53;6.07;;;2.50;;
325;SDS011;150;52.352;14.058;2022-08-21T08:29:23;6.43;;;2.40;;
325;SDS011;150;52.352;14.058;2022-08-21T08:31:50;6.88;;;2.65;;
325;SDS011;150;52.352;14.058;2022-08-21T08:34:16;2.85;;;1.98;;
325;SDS011;150;52.352;14.058;2022-08-21T08:36:44;4.73;;;2.20;;
325;SDS011;150;52.352;14.058;2022-08-21T08:39:11;4.72;;;2.63;;
325;SDS011;150;52.352;14.058;2022-08-21T08:41:38;5.22;;;2.65;;
325;SDS011;150;52.352;14.058;2022-08-21T08:44:06;5.30;;;3.22;;
325;SDS011;150;52.352;14.058;2022-08-21T08:46:36;3.40;;;2.10;;
325;SDS011;150;52.352;14.058;2022-08-21T08:49:06;4.22;;;2.22;;
325;SDS011;150;52.352;14.058;2022-08-21T08:51:39;4.00;;;2.10;;
325;SDS011;150;52.352;14.058;2022-08-21T08:54:12;2.42;;;1.85;;
325;SDS011;150;52.352;14.058;2022-08-21T08:56:43;2.97;;;1.60;;
325;SDS011;150;52.352;14.058;2022-08-21T08:59:13;5.80;;;2.80;;
325;SDS011;150;52.352;14.058;2022-08-21T09:01:43;3.83;;;2.40;;
325;SDS011;150;52.352;14.058;2022-08-21T09:04:10;2.80;;;1.80;;
325;SDS011;150;52.352;14.058;2022-08-21T09:06:43;8.07;;;2.13;;
325;SDS011;150;52.352;14.058;2022-08-21T09:09:22;3.60;;;1.63;;
325;SDS011;150;52.352;14.058;2022-08-21T09:11:57;4.50;;;2.00;;
325;SDS011;150;52.352;14.058;2022-08-21T09:14:32;3.40;;;2.72;;
325;SDS011;150;52.352;14.058;2022-08-21T09:17:12;5.47;;;2.25;;
325;SDS011;150;52.352;14.058;2022-08-21T09:19:50;3.80;;;2.25;;
325;SDS011;150;52.352;14.058;2022-08-21T09:22:28;3.47;;;1.50;;
325;SDS011;150;52.352;14.058;2022-08-21T09:25:07;4.00;;;1.80;;
325;SDS011;150;52.352;14.058;2022-08-21T09:27:38;5.53;;;1.90;;
325;SDS011;150;52.352;14.058;2022-08-21T09:30:05;4.13;;;1.58;;
325;SDS011;150;52.352;14.058;2022-08-21T09:32:35;5.35;;;1.42;;
325;SDS011;150;52.352;14.058;2022-08-21T09:35:04;3.85;;;1.58;;
325;SDS011;150;52.352;14.058;2022-08-21T09:37:33;3.35;;;2.33;;
325;SDS011;150;52.352;14.058;2022-08-21T09:40:15;7.32;;;3.17;;
325;SDS011;150;52.352;14.058;2022-08-21T09:42:53;3.90;;;2.30;;
325;SDS011;150;52.352;14.058;2022-08-21T09:45:21;7.80;;;1.80;;
325;SDS011;150;52.352;14.058;2022-08-21T09:47:49;4.50;;;1.90;;
325;SDS011;150;52.352;14.058;2022-08-21T09:50:16;3.60;;;1.80;;
325;SDS011;150;52.352;14.058;2022-08-21T09:52:46;4.57;;;1.60;;
325;SDS011;150;52.352;14.058;2022-08-21T09:55:16;4.50;;;1.60;;
325;SDS011;150;52.352;14.058;2022-08-21T09:58:09;3.30;;;1.70;;
325;SDS011;150;52.352;14.058;2022-08-21T10:00:36;3.70;;;1.63;;
325;SDS011;150;52.352;14.058;2022-08-21T10:03:11;5.20;;;1.70;;
325;SDS011;150;52.352;14.058;2022-08-21T10:05:49;2.78;;;1.60;;
325;SDS011;150;52.352;14.058;2022-08-21T10:08:18;6.28;;;1.75;;
325;SDS011;150;52.352;14.058;2022-08-21T10:10:45;3.60;;;2.10;;
325;SDS011;150;52.352;14.058;2022-08-21T10:13:19;6.90;;;2.15;;
325;SDS011;150;52.352;14.058;2022-08-21T10:15:54;5.78;;;2.97;;
325;SDS011;150;52.352;14.058;2022-08-21T10:18:29;3.45;;;2.50;;
325;SDS011;150;52.352;14.058;2022-08-21T10:21:02;10.10;;;2.37;;
325;SDS011;150;52.352;14.058;2022-08-21T10:23:41;8.45;;;4.53;;
325;SDS011;150;52.352;14.058;2022-08-21T10:26:20;7.85;;;4.10;;
325;SDS011;150;52.352;14.058;2022-08-21T10:28:56;4.35;;;2.42;;
325;SDS011;150;52.352;14.058;2022-08-21T10:31:32;40.70;;;38.40;;
325;SDS011;150;52.352;14.058;2022-08-21T10:34:10;5.10;;;1.93;;
325;SDS011;150;52.352;14.058;2022-08-21T10:36:51;5.78;;;2.00;;
325;SDS011;150;52.352;14.058;2022-08-21T10:39:28;2.40;;;1.48;;
325;SDS011;150;52.352;14.058;2022-08-21T10:42:09;4.57;;;1.85;;
325;SDS011;150;52.352;14.058;2022-08-21T10:44:53;6.43;;;1.88;;
325;SDS011;150;52.352;14.058;2022-08-21T10:47:29;4.20;;;1.55;;
325;SDS011;150;52.352;14.058;2022-08-21T10:50:04;5.57;;;1.50;;
325;SDS011;150;52.352;14.058;2022-08-21T10:52:51;3.60;;;1.97;;
325;SDS011;150;52.352;14.058;2022-08-21T10:55:30;5.97;;;2.70;;
325;SDS011;150;52.352;14.058;2022-08-21T10:58:01;4.60;;;2.20;;
325;SDS011;150;52.352;14.058;2022-08-21T11:00:32;4.97;;;1.90;;
325;SDS011;150;52.352;14.058;2022-08-21T11:03:05;3.70;;;2.10;;
325;SDS011;150;52.352;14.058;2022-08-21T11:05:38;6.00;;;1.98;;
325;SDS011;150;52.352;14.058;2022-08-21T11:08:08;2.55;;;1.50;;
325;SDS011;150;52.352;14.058;2022-08-21T11:10:39;5.75;;;1.90;;
325;SDS011;150;52.352;14.058;2022-08-21T11:13:11;3.40;;;1.50;;
325;SDS011;150;52.352;14.058;2022-08-21T11:15:43;2.70;;;1.60;;
325;SDS011;150;52.352;14.058;2022-08-21T11:18:21;4.40;;;1.40;;
325;SDS011;150;52.352;14.058;2022-08-21T11:20:56;4.60;;;2.00;;
325;SDS011;150;52.352;14.058;2022-08-21T11:23:29;4.90;;;2.10;;
325;SDS011;150;52.352;14.058;2022-08-21T11:26:04;2.67;;;1.45;;
325;SDS011;150;52.352;14.058;2022-08-21T11:28:35;3.17;;;1.93;;
325;SDS011;150;52.352;14.058;2022-08-21T11:31:08;4.88;;;2.10;;
325;SDS011;150;52.352;14.058;2022-08-21T11:33:46;3.47;;;1.75;;
325;SDS011;150;52.352;14.058;2022-08-21T11:36:22;6.40;;;3.80;;
325;SDS011;150;52.352;14.058;2022-08-21T11:39:00;6.72;;;1.73;;
325;SDS011;150;52.352;14.058;2022-08-21T11:41:34;7.70;;;1.92;;
325;SDS011;150;52.352;14.058;2022-08-21T11:44:08;3.38;;;1.73;;
325;SDS011;150;52.352;14.058;2022-08-21T11:46:39;5.10;;;2.00;;
325;SDS011;150;52.352;14.058;2022-08-21T11:49:19;5.10;;;2.20;;
325;SDS011;150;52.352;14.058;2022-08-21T11:52:02;3.90;;;1.60;;
325;SDS011;150;52.352;14.058;2022-08-21T11:54:35;4.15;;;1.80;;
325;SDS011;150;52.352;14.058;2022-08-21T11:57:07;3.40;;;1.48;;
325;SDS011;150;52.352;14.058;2022-08-21T11:59:41;3.27;;;2.13;;
325;SDS011;150;52.352;14.058;2022-08-21T12:02:12;4.35;;;2.20;;
325;SDS011;150;52.352;14.058;2022-08-21T12:04:42;4.60;;;1.80;;
325;SDS011;150;52.352;14.058;2022-08-21T12:07:14;4.30;;;2.50;;
325;SDS011;150;52.352;14.058;2022-08-21T12:09:51;2.78;;;1.98;;
325;SDS011;150;52.352;14.058;2022-08-21T12:12:23;3.25;;;1.95;;
325;SDS011;150;52.352;14.058;2022-08-21T12:15:04;1.98;;;1.40;;
325;SDS011;150;52.352;14.058;2022-08-21T12:17:54;2.80;;;1.40;;
325;SDS011;150;52.352;14.058;2022-08-21T12:20:25;4.90;;;1.42;;
325;SDS011;150;52.352;14.058;2022-08-21T12:23:12;4.53;;;2.13;;
325;SDS011;150;52.352;14.058;2022-08-21T12:25:44;3.85;;;2.25;;
325;SDS011;150;52.352;14.058;2022-08-21T12:28:15;4.40;;;1.60;;
325;SDS011;150;52.352;14.058;2022-08-21T12:30:48;3.65;;;1.40;;
325;SDS011;150;52.352;14.058;2022-08-21T12:33:20;4.32;;;1.75;;
325;SDS011;150;52.352;14.058;2022-08-21T12:35:49;2.08;;;1.40;;
325;SDS011;150;52.352;14.058;2022-08-21T12:38:20;8.40;;;6.25;;
325;SDS011;150;52.352;14.058;2022-08-21T12:40:50;4.00;;;2.20;;
325;SDS011;150;52.352;14.058;2022-08-21T12:43:24;2.70;;;1.52;;
325;SDS011;150;52.352;14.058;2022-08-21T12:45:55;3.83;;;1.80;;
325;SDS011;150;52.352;14.058;2022-08-21T12:48:25;4.03;;;1.90;;
325;SDS011;150;52.352;14.058;2022-08-21T12:50:55;5.93;;;2.70;;
325;SDS011;150;52.352;14.058;2022-08-21T12:53:28;4.38;;;1.50;;
325;SDS011;150;52.352;14.058;2022-08-21T12:55:57;3.70;;;1.52;;
325;SDS011;150;52.352;14.058;2022-08-21T12:58:28;3.00;;;1.80;;
325;SDS011;150;52.352;14.058;2022-08-21T13:00:58;3.30;;;1.80;;
325;SDS011;150;52.352;14.058;2022-08-21T13:03:28;3.08;;;1.70;;
325;SDS011;150;52.352;14.058;2022-08-21T13:05:56;3.20;;;1.30;;
325;SDS011;150;52.352;14.058;2022-08-21T13:08:25;5.35;;;1.50;;
325;SDS011;150;52.352;14.058;2022-08-21T13:10:56;5.25;;;1.48;;
325;SDS011;150;52.352;14.058;2022-08-21T13:13:26;3.50;;;1.98;;
325;SDS011;150;52.352;14.058;2022-08-21T13:15:57;4.25;;;1.42;;
325;SDS011;150;52.352;14.058;2022-08-21T13:18:26;2.53;;;1.70;;
325;SDS011;150;52.352;14.058;2022-08-21T13:21:02;3.40;;;1.55;;
325;SDS011;150;52.352;14.058;2022-08-21T13:23:32;3.40;;;1.40;;
325;SDS011;150;52.352;14.058;2022-08-21T13:25:59;3.20;;;1.50;;
325;SDS011;150;52.352;14.058;2022-08-21T13:28:32;3.35;;;1.42;;
325;SDS011;150;52.352;14.058;2022-08-21T13:31:05;1.75;;;1.20;;
325;SDS011;150;52.352;14.058;2022-08-21T13:33:34;3.40;;;1.70;;
325;SDS011;150;52.352;14.058;2022-08-21T13:36:06;1.80;;;1.13;;
325;SDS011;150;52.352;14.058;2022-08-21T13:38:39;3.20;;;1.50;;
325;SDS011;150;52.352;14.058;2022-08-21T13:41:08;2.70;;;1.38;;
325;SDS011;150;52.352;14.058;2022-08-21T13:43:46;6.85;;;4.50;;
325;SDS011;150;52.352;14.058;2022-08-21T13:46:14;2.75;;;1.55;;
325;SDS011;150;52.352;14.058;2022-08-21T13:48:43;5.50;;;1.90;;
325;SDS011;150;52.352;14.058;2022-08-21T13:51:09;3.22;;;1.95;;
325;SDS011;150;52.352;14.058;2022-08-21T13:53:44;3.30;;;1.52;;
325;SDS011;150;52.352;14.058;2022-08-21T13:56:22;2.60;;;1.20;;
325;SDS011;150;52.352;14.058;2022-08-21T13:58:50;3.40;;;1.60;;
325;SDS011;150;52.352;14.058;2022-08-21T14:01:19;8.60;;;4.40;;
325;SDS011;150;52.352;14.058;2022-08-21T14:03:49;8.48;;;3.28;;
325;SDS011;150;52.352;14.058;2022-08-21T14:06:19;1.90;;;1.20;;
325;SDS011;150;52.352;14.058;2022-08-21T14:08:51;3.20;;;1.50;;
325;SDS011;150;52.352;14.058;2022-08-21T14:11:20;2.80;;;1.50;;
325;SDS011;150;52.352;14.058;2022-08-21T14:13:48;2.10;;;1.65;;
325;SDS011;150;52.352;14.058;2022-08-21T14:16:18;4.93;;;1.85;;
325;SDS011;150;52.352;14.058;2022-08-21T14:18:48;2.92;;;1.40;;
325;SDS011;150;52.352;14.058;2022-08-21T14:21:24;3.42;;;1.60;;
325;SDS011;150;52.352;14.058;2022-08-21T14:24:10;3.03;;;1.40;;
325;SDS011;150;52.352;14.058;2022-08-21T14:26:43;3.33;;;2.50;;
325;SDS011;150;52.352;14.058;2022-08-21T14:29:15;3.20;;;1.70;;
325;SDS011;150;52.352;14.058;2022-08-21T14:31:47;2.80;;;1.55;;
325;SDS011;150;52.352;14.058;2022-08-21T14:34:16;3.88;;;2.58;;
325;SDS011;150;52.352;14.058;2022-08-21T14:36:44;4.13;;;2.25;;
325;SDS011;150;52.352;14.058;2022-08-21T14:39:12;5.40;;;3.13;;
325;SDS011;150;52.352;14.058;2022-08-21T14:41:39;3.40;;;1.40;;
325;SDS011;150;52.352;14.058;2022-08-21T14:44:07;1.98;;;1.33;;
325;SDS011;150;52.352;14.058;2022-08-21T14:46:34;5.15;;;1.50;;
325;SDS011;150;52.352;14.058;2022-08-21T14:49:02;4.05;;;1.80;;
325;SDS011;150;52.352;14.058;2022-08-21T14:51:29;4.03;;;1.50;;
325;SDS011;150;52.352;14.058;2022-08-21T14:53:56;2.00;;;1.30;;
325;SDS011;150;52.352;14.058;2022-08-21T14:56:24;1.93;;;1.40;;
325;SDS011;150;52.352;14.058;2022-08-21T14:58:51;3.95;;;1.75;;
325;SDS011;150;52.352;14.058;2022-08-21T15:01:21;2.42;;;1.52;;
325;SDS011;150;52.352;14.058;2022-08-21T15:03:48;2.65;;;1.80;;
325;SDS011;150;52.352;14.058;2022-08-21T15:06:16;7.95;;;6.18;;
325;SDS011;150;52.352;14.058;2022-08-21T15:08:45;4.93;;;2.50;;
325;SDS011;150;52.352;14.058;2022-08-21T15:11:12;3.83;;;1.90;;
325;SDS011;150;52.352;14.058;2022-08-21T15:13:45;4.18;;;1.30;;
325;SDS011;150;52.352;14.058;2022-08-21T15:16:12;2.97;;;1.70;;
325;SDS011;150;52.352;14.058;2022-08-21T15:18:39;3.35;;;1.60;;
325;SDS011;150;52.352;14.058;2022-08-21T15:21:07;2.67;;;1.90;;
325;SDS011;150;52.352;14.058;2022-08-21T15:23:34;3.90;;;2.08;;
325;SDS011;150;52.352;14.058;2022-08-21T15:26:01;3.00;;;1.55;;
325;SDS011;150;52.352;14.058;2022-08-21T15:28:28;4.18;;;1.48;;
325;SDS011;150;52.352;14.058;2022-08-21T15:30:56;3.08;;;1.50;;
325;SDS011;150;52.352;14.058;2022-08-21T15:33:25;4.13;;;1.70;;
325;SDS011;150;52.352;14.058;2022-08-21T15:35:51;3.17;;;1.50;;
325;SDS011;150;52.352;14.058;2022-08-21T15:38:18;4.10;;;1.50;;
325;SDS011;150;52.352;14.058;2022-08-21T15:40:45;3.50;;;1.48;;
325;SDS011;150;52.352;14.058;2022-08-21T15:43:18;3.55;;;1.70;;